sensor_id;sensor_type;location;lat;lon;timestamp;P1;durP1;ratioP1;P2;durP2;ratioP2
10122;SDS011;5101;49.038;8.710;2022-08-01T00:02:09;1.95;;;1.30;;
10122;SDS011;5101;49.038;8.710;2022-08-01T00:04:34;2.80;;;1.60;;
10122;SDS011;5101;49.038;8.710;2022-08-01T00:07:00;1.48;;;1.38;;
10122;SDS011;5101;49.038;8.710;2022-08-01T00:09:25;3.33;;;1.70;;
10122;SDS011;5101;49.038;8.710;2022-08-01T00:11:51;1.65;;;1.55;;
10122;SDS011;5101;49.038;8.710;2022-08-01T00:14:16;1.30;;;1.30;;
10122;SDS011;5101;49.038;8.710;2022-08-01T00:16:42;1.30;;;1.20;;
10122;SDS011;5101;49.038;8.710;2022-08-01T00:19:07;1.52;;;1.33;;
10122;SDS011;5101;49.038;8.710;2022-08-01T00:21:33;1.55;;;1.42;;
10122;SDS011;5101;49.038;8.710;2022-08-01T00:23:58;1.75;;;1.40;;
10122;SDS011;5101;49.038;8.710;2022-08-01T00:26:24;2.65;;;1.48;;
10122;SDS011;5101;49.038;8.710;2022-08-01T00:28:49;2.13;;;1.45;;
10122;SDS011;5101;49.038;8.710;2022-08-01T00:31:15;3.15;;;1.52;;
10122;SDS011;5101;49.038;8.710;2022-08-01T00:33:40;1.85;;;1.67;;
10122;SDS011;5101;49.038;8.710;2022-08-01T00:36:06;1.50;;;1.40;;
10122;SDS011;5101;49.038;8.710;2022-08-01T00:38:31;4.53;;;1.60;;
10122;SDS011;5101;49.038;8.710;2022-08-01T00:40:57;1.50;;;1.40;;
10122;SDS011;5101;49.038;8.710;2022-08-01T00:43:22;2.50;;;1.45;;
10122;SDS011;5101;49.038;8.710;2022-08-01T00:45:48;1.27;;;1.15;;
10122;SDS011;5101;49.038;8.710;2022-08-01T00:48:14;3.45;;;1.73;;
10122;SDS011;5101;49.038;8.710;2022-08-01T00:50:39;2.95;;;1.67;;
10122;SDS011;5101;49.038;8.710;2022-08-01T00:53:05;2.35;;;1.35;;
10122;SDS011;5101;49.038;8.710;2022-08-01T00:55:31;1.60;;;1.50;;
10122;SDS011;5101;49.038;8.710;2022-08-01T00:57:57;1.40;;;1.30;;
10122;SDS011;5101;49.038;8.710;2022-08-01T01:00:23;2.35;;;1.45;;
10122;SDS011;5101;49.038;8.710;2022-08-01T01:02:49;1.88;;;1.73;;
10122;SDS011;5101;49.038;8.710;2022-08-01T01:05:15;1.25;;;1.15;;
10122;SDS011;5101;49.038;8.710;2022-08-01T01:17:57;1.92;;;1.60;;
10122;SDS011;5101;49.038;8.710;2022-08-01T01:20:40;1.83;;;1.42;;
10122;SDS011;5101;49.038;8.710;2022-08-01T01:31:25;1.58;;;1.38;;
10122;SDS011;5101;49.038;8.710;2022-08-01T01:33:53;3.08;;;1.77;;
10122;SDS011;5101;49.038;8.710;2022-08-01T01:36:20;1.50;;;1.40;;
10122;SDS011;5101;49.038;8.710;2022-08-01T01:38:46;2.85;;;1.70;;
10122;SDS011;5101;49.038;8.710;2022-08-01T01:41:14;4.57;;;1.77;;
10122;SDS011;5101;49.038;8.710;2022-08-01T01:43:42;1.60;;;1.50;;
10122;SDS011;5101;49.038;8.710;2022-08-01T01:46:11;3.63;;;1.90;;
10122;SDS011;5101;49.038;8.710;2022-08-01T01:48:40;1.60;;;1.50;;
10122;SDS011;5101;49.038;8.710;2022-08-01T01:51:09;1.77;;;1.67;;
10122;SDS011;5101;49.038;8.710;2022-08-01T01:53:36;4.53;;;1.80;;
10122;SDS011;5101;49.038;8.710;2022-08-01T01:56:04;1.83;;;1.73;;
10122;SDS011;5101;49.038;8.710;2022-08-01T01:58:31;2.67;;;1.75;;
10122;SDS011;5101;49.038;8.710;2022-08-01T02:00:59;2.08;;;1.65;;
10122;SDS011;5101;49.038;8.710;2022-08-01T02:03:26;1.75;;;1.65;;
10122;SDS011;5101;49.038;8.710;2022-08-01T02:05:54;1.98;;;1.50;;
10122;SDS011;5101;49.038;8.710;2022-08-01T02:08:22;1.77;;;1.30;;
10122;SDS011;5101;49.038;8.710;2022-08-01T02:10:50;2.97;;;1.42;;
10122;SDS011;5101;49.038;8.710;2022-08-01T02:13:36;2.65;;;1.35;;
10122;SDS011;5101;49.038;8.710;2022-08-01T02:16:03;6.32;;;1.75;;
10122;SDS011;5101;49.038;8.710;2022-08-01T02:18:29;3.70;;;1.75;;
10122;SDS011;5101;49.038;8.710;2022-08-01T02:20:55;1.70;;;1.60;;
10122;SDS011;5101;49.038;8.710;2022-08-01T02:23:23;1.98;;;1.80;;
10122;SDS011;5101;49.038;8.710;2022-08-01T02:25:53;1.88;;;1.67;;
10122;SDS011;5101;49.038;8.710;2022-08-01T02:28:28;3.28;;;1.65;;
10122;SDS011;5101;49.038;8.710;2022-08-01T02:30:58;2.20;;;2.00;;
10122;SDS011;5101;49.038;8.710;2022-08-01T02:33:28;1.70;;;1.60;;
10122;SDS011;5101;49.038;8.710;2022-08-01T02:36:05;1.92;;;1.70;;
10122;SDS011;5101;49.038;8.710;2022-08-01T02:38:33;1.83;;;1.73;;
10122;SDS011;5101;49.038;8.710;2022-08-01T02:41:06;1.95;;;1.85;;
10122;SDS011;5101;49.038;8.710;2022-08-01T02:43:34;1.95;;;1.83;;
10122;SDS011;5101;49.038;8.710;2022-08-01T02:46:04;1.85;;;1.75;;
10122;SDS011;5101;49.038;8.710;2022-08-01T02:48:34;1.60;;;1.50;;
10122;SDS011;5101;49.038;8.710;2022-08-01T02:51:02;1.83;;;1.65;;
10122;SDS011;5101;49.038;8.710;2022-08-01T02:53:31;1.83;;;1.70;;
10122;SDS011;5101;49.038;8.710;2022-08-01T02:56:01;1.70;;;1.60;;
10122;SDS011;5101;49.038;8.710;2022-08-01T02:58:33;1.90;;;1.70;;
10122;SDS011;5101;49.038;8.710;2022-08-01T03:01:00;1.50;;;1.40;;
10122;SDS011;5101;49.038;8.710;2022-08-01T03:03:26;2.13;;;1.70;;
10122;SDS011;5101;49.038;8.710;2022-08-01T03:05:53;2.03;;;1.70;;
10122;SDS011;5101;49.038;8.710;2022-08-01T03:08:19;1.88;;;1.77;;
10122;SDS011;5101;49.038;8.710;2022-08-01T03:10:47;1.70;;;1.60;;
10122;SDS011;5101;49.038;8.710;2022-08-01T03:13:13;3.90;;;1.67;;
10122;SDS011;5101;49.038;8.710;2022-08-01T03:15:41;2.13;;;1.92;;
10122;SDS011;5101;49.038;8.710;2022-08-01T03:18:08;1.80;;;1.70;;
10122;SDS011;5101;49.038;8.710;2022-08-01T03:20:36;2.20;;;1.83;;
10122;SDS011;5101;49.038;8.710;2022-08-01T03:23:03;2.22;;;1.65;;
10122;SDS011;5101;49.038;8.710;2022-08-01T03:25:31;2.15;;;1.83;;
10122;SDS011;5101;49.038;8.710;2022-08-01T03:28:01;2.65;;;1.80;;
10122;SDS011;5101;49.038;8.710;2022-08-01T03:30:28;1.70;;;1.60;;
10122;SDS011;5101;49.038;8.710;2022-08-01T03:32:55;2.08;;;1.98;;
10122;SDS011;5101;49.038;8.710;2022-08-01T03:35:22;3.38;;;1.65;;
10122;SDS011;5101;49.038;8.710;2022-08-01T03:37:52;3.40;;;2.03;;
10122;SDS011;5101;49.038;8.710;2022-08-01T03:40:35;2.15;;;1.90;;
10122;SDS011;5101;49.038;8.710;2022-08-01T03:43:07;2.75;;;2.03;;
10122;SDS011;5101;49.038;8.710;2022-08-01T03:45:53;2.67;;;1.90;;
10122;SDS011;5101;49.038;8.710;2022-08-01T03:48:22;2.80;;;1.80;;
10122;SDS011;5101;49.038;8.710;2022-08-01T03:50:53;3.63;;;2.00;;
10122;SDS011;5101;49.038;8.710;2022-08-01T03:53:22;2.13;;;2.00;;
10122;SDS011;5101;49.038;8.710;2022-08-01T03:55:50;2.97;;;2.38;;
10122;SDS011;5101;49.038;8.710;2022-08-01T03:58:18;2.58;;;2.28;;
10122;SDS011;5101;49.038;8.710;2022-08-01T04:00:44;2.00;;;1.90;;
10122;SDS011;5101;49.038;8.710;2022-08-01T04:03:11;2.45;;;2.00;;
10122;SDS011;5101;49.038;8.710;2022-08-01T04:05:40;3.78;;;1.95;;
10122;SDS011;5101;49.038;8.710;2022-08-01T04:08:06;2.25;;;2.00;;
10122;SDS011;5101;49.038;8.710;2022-08-01T04:10:31;2.22;;;1.90;;
10122;SDS011;5101;49.038;8.710;2022-08-01T04:12:57;2.22;;;2.03;;
10122;SDS011;5101;49.038;8.710;2022-08-01T04:15:22;2.08;;;1.98;;
10122;SDS011;5101;49.038;8.710;2022-08-01T04:17:48;4.10;;;2.28;;
10122;SDS011;5101;49.038;8.710;2022-08-01T04:20:14;4.20;;;2.53;;
10122;SDS011;5101;49.038;8.710;2022-08-01T04:22:40;2.90;;;2.53;;
10122;SDS011;5101;49.038;8.710;2022-08-01T04:25:17;2.65;;;2.45;;
10122;SDS011;5101;49.038;8.710;2022-08-01T04:27:57;3.95;;;2.03;;
10122;SDS011;5101;49.038;8.710;2022-08-01T04:30:27;2.40;;;2.13;;
10122;SDS011;5101;49.038;8.710;2022-08-01T04:32:56;3.13;;;2.45;;
10122;SDS011;5101;49.038;8.710;2022-08-01T04:35:25;3.15;;;2.33;;
10122;SDS011;5101;49.038;8.710;2022-08-01T04:37:52;3.70;;;2.00;;
10122;SDS011;5101;49.038;8.710;2022-08-01T04:40:19;2.83;;;2.30;;
10122;SDS011;5101;49.038;8.710;2022-08-01T04:42:46;2.95;;;2.10;;
10122;SDS011;5101;49.038;8.710;2022-08-01T04:45:13;2.53;;;2.15;;
10122;SDS011;5101;49.038;8.710;2022-08-01T04:47:40;3.47;;;2.17;;
10122;SDS011;5101;49.038;8.710;2022-08-01T04:50:07;4.60;;;2.33;;
10122;SDS011;5101;49.038;8.710;2022-08-01T04:52:36;2.25;;;2.13;;
10122;SDS011;5101;49.038;8.710;2022-08-01T04:55:03;2.75;;;2.33;;
10122;SDS011;5101;49.038;8.710;2022-08-01T04:57:31;3.25;;;2.25;;
10122;SDS011;5101;49.038;8.710;2022-08-01T04:59:59;3.78;;;2.40;;
10122;SDS011;5101;49.038;8.710;2022-08-01T05:02:27;3.35;;;2.40;;
10122;SDS011;5101;49.038;8.710;2022-08-01T05:04:53;2.47;;;2.28;;
10122;SDS011;5101;49.038;8.710;2022-08-01T05:07:20;2.40;;;2.20;;
10122;SDS011;5101;49.038;8.710;2022-08-01T05:09:46;4.13;;;2.22;;
10122;SDS011;5101;49.038;8.710;2022-08-01T05:12:11;4.15;;;2.22;;
10122;SDS011;5101;49.038;8.710;2022-08-01T05:14:37;7.40;;;2.38;;
10122;SDS011;5101;49.038;8.710;2022-08-01T05:17:03;8.07;;;2.22;;
10122;SDS011;5101;49.038;8.710;2022-08-01T05:19:31;5.45;;;2.55;;
10122;SDS011;5101;49.038;8.710;2022-08-01T05:22:02;2.45;;;2.25;;
10122;SDS011;5101;49.038;8.710;2022-08-01T05:24:30;2.30;;;2.15;;
10122;SDS011;5101;49.038;8.710;2022-08-01T05:26:56;3.53;;;2.33;;
10122;SDS011;5101;49.038;8.710;2022-08-01T05:29:22;2.78;;;2.35;;
10122;SDS011;5101;49.038;8.710;2022-08-01T05:31:48;2.85;;;2.25;;
10122;SDS011;5101;49.038;8.710;2022-08-01T05:34:13;3.83;;;2.08;;
10122;SDS011;5101;49.038;8.710;2022-08-01T05:36:39;4.07;;;1.90;;
10122;SDS011;5101;49.038;8.710;2022-08-01T05:39:05;2.88;;;1.85;;
10122;SDS011;5101;49.038;8.710;2022-08-01T05:41:30;4.50;;;2.00;;
10122;SDS011;5101;49.038;8.710;2022-08-01T05:43:56;4.43;;;2.28;;
10122;SDS011;5101;49.038;8.710;2022-08-01T05:46:21;3.17;;;2.10;;
10122;SDS011;5101;49.038;8.710;2022-08-01T05:48:47;5.53;;;2.20;;
10122;SDS011;5101;49.038;8.710;2022-08-01T05:51:12;3.83;;;2.45;;
10122;SDS011;5101;49.038;8.710;2022-08-01T05:53:38;8.98;;;2.33;;
10122;SDS011;5101;49.038;8.710;2022-08-01T05:56:04;7.05;;;2.22;;
10122;SDS011;5101;49.038;8.710;2022-08-01T05:58:29;10.68;;;2.00;;
10122;SDS011;5101;49.038;8.710;2022-08-01T06:00:55;8.90;;;2.17;;
10122;SDS011;5101;49.038;8.710;2022-08-01T06:03:21;5.45;;;2.20;;
10122;SDS011;5101;49.038;8.710;2022-08-01T06:05:46;4.38;;;1.85;;
10122;SDS011;5101;49.038;8.710;2022-08-01T06:08:12;8.77;;;2.00;;
10122;SDS011;5101;49.038;8.710;2022-08-01T06:10:37;11.88;;;2.30;;
10122;SDS011;5101;49.038;8.710;2022-08-01T06:13:03;8.57;;;2.10;;
10122;SDS011;5101;49.038;8.710;2022-08-01T06:15:29;10.77;;;2.17;;
10122;SDS011;5101;49.038;8.710;2022-08-01T06:17:55;5.30;;;1.90;;
10122;SDS011;5101;49.038;8.710;2022-08-01T06:20:21;3.42;;;2.20;;
10122;SDS011;5101;49.038;8.710;2022-08-01T06:22:46;6.60;;;2.00;;
10122;SDS011;5101;49.038;8.710;2022-08-01T06:25:12;23.67;;;2.55;;
10122;SDS011;5101;49.038;8.710;2022-08-01T06:27:37;2.78;;;1.67;;
10122;SDS011;5101;49.038;8.710;2022-08-01T06:30:04;2.95;;;1.63;;
10122;SDS011;5101;49.038;8.710;2022-08-01T06:32:32;2.50;;;1.50;;
10122;SDS011;5101;49.038;8.710;2022-08-01T06:34:58;1.85;;;1.25;;
10122;SDS011;5101;49.038;8.710;2022-08-01T06:37:24;4.22;;;1.42;;
10122;SDS011;5101;49.038;8.710;2022-08-01T06:39:54;5.90;;;1.33;;
10122;SDS011;5101;49.038;8.710;2022-08-01T06:42:19;2.17;;;1.38;;
10122;SDS011;5101;49.038;8.710;2022-08-01T06:44:45;3.83;;;1.17;;
10122;SDS011;5101;49.038;8.710;2022-08-01T06:47:10;2.10;;;1.10;;
10122;SDS011;5101;49.038;8.710;2022-08-01T06:49:36;2.95;;;1.38;;
10122;SDS011;5101;49.038;8.710;2022-08-01T06:52:01;10.57;;;1.70;;
10122;SDS011;5101;49.038;8.710;2022-08-01T06:54:28;15.00;;;2.10;;
10122;SDS011;5101;49.038;8.710;2022-08-01T06:56:54;2.17;;;1.40;;
10122;SDS011;5101;49.038;8.710;2022-08-01T06:59:19;1.55;;;1.20;;
10122;SDS011;5101;49.038;8.710;2022-08-01T07:01:45;2.17;;;1.02;;
10122;SDS011;5101;49.038;8.710;2022-08-01T07:04:10;1.48;;;1.10;;
10122;SDS011;5101;49.038;8.710;2022-08-01T07:06:36;1.65;;;1.50;;
10122;SDS011;5101;49.038;8.710;2022-08-01T07:09:02;2.78;;;1.27;;
10122;SDS011;5101;49.038;8.710;2022-08-01T07:11:28;1.42;;;1.20;;
10122;SDS011;5101;49.038;8.710;2022-08-01T07:13:54;2.55;;;0.98;;
10122;SDS011;5101;49.038;8.710;2022-08-01T07:16:19;2.70;;;1.13;;
10122;SDS011;5101;49.038;8.710;2022-08-01T07:18:46;1.85;;;1.30;;
10122;SDS011;5101;49.038;8.710;2022-08-01T07:21:12;4.10;;;0.93;;
10122;SDS011;5101;49.038;8.710;2022-08-01T07:23:37;1.52;;;0.93;;
10122;SDS011;5101;49.038;8.710;2022-08-01T07:26:03;1.15;;;0.88;;
10122;SDS011;5101;49.038;8.710;2022-08-01T07:28:29;1.95;;;1.00;;
10122;SDS011;5101;49.038;8.710;2022-08-01T07:30:55;1.05;;;0.80;;
10122;SDS011;5101;49.038;8.710;2022-08-01T07:33:21;1.13;;;0.80;;
10122;SDS011;5101;49.038;8.710;2022-08-01T07:35:47;2.30;;;0.80;;
10122;SDS011;5101;49.038;8.710;2022-08-01T07:38:13;1.65;;;0.90;;
10122;SDS011;5101;49.038;8.710;2022-08-01T07:40:40;2.50;;;0.70;;
10122;SDS011;5101;49.038;8.710;2022-08-01T07:43:05;2.15;;;0.75;;
10122;SDS011;5101;49.038;8.710;2022-08-01T07:45:31;0.70;;;0.70;;
10122;SDS011;5101;49.038;8.710;2022-08-01T07:48:01;2.47;;;0.90;;
10122;SDS011;5101;49.038;8.710;2022-08-01T07:50:30;1.17;;;1.08;;
10122;SDS011;5101;49.038;8.710;2022-08-01T07:52:56;0.95;;;0.90;;
10122;SDS011;5101;49.038;8.710;2022-08-01T07:55:21;1.20;;;1.10;;
10122;SDS011;5101;49.038;8.710;2022-08-01T07:57:47;1.75;;;1.15;;
10122;SDS011;5101;49.038;8.710;2022-08-01T08:00:12;2.97;;;1.00;;
10122;SDS011;5101;49.038;8.710;2022-08-01T08:02:38;4.10;;;1.85;;
10122;SDS011;5101;49.038;8.710;2022-08-01T08:05:04;5.13;;;2.20;;
10122;SDS011;5101;49.038;8.710;2022-08-01T08:07:31;3.17;;;2.15;;
10122;SDS011;5101;49.038;8.710;2022-08-01T08:09:56;4.45;;;1.80;;
10122;SDS011;5101;49.038;8.710;2022-08-01T08:12:22;5.38;;;2.42;;
10122;SDS011;5101;49.038;8.710;2022-08-01T08:14:48;2.20;;;2.00;;
10122;SDS011;5101;49.038;8.710;2022-08-01T08:17:13;3.92;;;2.20;;
10122;SDS011;5101;49.038;8.710;2022-08-01T08:19:39;2.20;;;2.08;;
10122;SDS011;5101;49.038;8.710;2022-08-01T08:22:07;1.88;;;1.70;;
10122;SDS011;5101;49.038;8.710;2022-08-01T08:24:34;3.40;;;1.63;;
10122;SDS011;5101;49.038;8.710;2022-08-01T08:27:00;1.35;;;1.00;;
10122;SDS011;5101;49.038;8.710;2022-08-01T08:29:28;2.92;;;1.33;;
10122;SDS011;5101;49.038;8.710;2022-08-01T08:31:57;10.02;;;1.80;;
10122;SDS011;5101;49.038;8.710;2022-08-01T08:34:23;1.90;;;0.77;;
10122;SDS011;5101;49.038;8.710;2022-08-01T08:36:50;4.35;;;0.98;;
10122;SDS011;5101;49.038;8.710;2022-08-01T08:39:16;2.78;;;0.70;;
10122;SDS011;5101;49.038;8.710;2022-08-01T08:41:42;3.20;;;1.25;;
10122;SDS011;5101;49.038;8.710;2022-08-01T08:44:08;2.70;;;1.08;;
10122;SDS011;5101;49.038;8.710;2022-08-01T08:46:37;3.05;;;1.25;;
10122;SDS011;5101;49.038;8.710;2022-08-01T08:49:06;3.83;;;1.20;;
10122;SDS011;5101;49.038;8.710;2022-08-01T08:51:33;1.13;;;1.02;;
10122;SDS011;5101;49.038;8.710;2022-08-01T08:54:02;1.00;;;1.00;;
10122;SDS011;5101;49.038;8.710;2022-08-01T08:56:28;1.08;;;0.95;;
10122;SDS011;5101;49.038;8.710;2022-08-01T08:58:59;1.33;;;1.10;;
10122;SDS011;5101;49.038;8.710;2022-08-01T09:01:25;2.13;;;0.90;;
10122;SDS011;5101;49.038;8.710;2022-08-01T09:03:50;1.95;;;0.90;;
10122;SDS011;5101;49.038;8.710;2022-08-01T09:06:16;1.70;;;0.93;;
10122;SDS011;5101;49.038;8.710;2022-08-01T09:08:42;3.17;;;1.10;;
10122;SDS011;5101;49.038;8.710;2022-08-01T09:11:07;2.70;;;1.05;;
10122;SDS011;5101;49.038;8.710;2022-08-01T09:13:33;2.65;;;1.10;;
10122;SDS011;5101;49.038;8.710;2022-08-01T09:15:58;1.10;;;1.00;;
10122;SDS011;5101;49.038;8.710;2022-08-01T09:18:39;1.35;;;1.00;;
10122;SDS011;5101;49.038;8.710;2022-08-01T09:23:35;4.25;;;1.23;;
10122;SDS011;5101;49.038;8.710;2022-08-01T09:26:07;3.67;;;1.35;;
10122;SDS011;5101;49.038;8.710;2022-08-01T09:28:36;7.60;;;1.00;;
10122;SDS011;5101;49.038;8.710;2022-08-01T09:31:06;1.42;;;0.90;;
10122;SDS011;5101;49.038;8.710;2022-08-01T09:33:47;1.02;;;0.90;;
10122;SDS011;5101;49.038;8.710;2022-08-01T09:36:20;2.10;;;1.00;;
10122;SDS011;5101;49.038;8.710;2022-08-01T09:38:48;5.75;;;0.90;;
10122;SDS011;5101;49.038;8.710;2022-08-01T09:41:14;4.05;;;1.02;;
10122;SDS011;5101;49.038;8.710;2022-08-01T09:43:40;5.85;;;1.30;;
10122;SDS011;5101;49.038;8.710;2022-08-01T09:46:14;1.33;;;1.00;;
10122;SDS011;5101;49.038;8.710;2022-08-01T09:48:59;2.28;;;0.90;;
10122;SDS011;5101;49.038;8.710;2022-08-01T09:51:27;1.10;;;1.00;;
10122;SDS011;5101;49.038;8.710;2022-08-01T09:54:04;1.73;;;0.95;;
10122;SDS011;5101;49.038;8.710;2022-08-01T09:56:37;2.15;;;1.02;;
10122;SDS011;5101;49.038;8.710;2022-08-01T09:59:05;2.90;;;1.13;;
10122;SDS011;5101;49.038;8.710;2022-08-01T10:01:46;3.15;;;1.30;;
10122;SDS011;5101;49.038;8.710;2022-08-01T10:04:22;2.33;;;0.80;;
10122;SDS011;5101;49.038;8.710;2022-08-01T10:06:49;2.30;;;0.85;;
10122;SDS011;5101;49.038;8.710;2022-08-01T10:09:28;4.55;;;1.23;;
10122;SDS011;5101;49.038;8.710;2022-08-01T10:11:55;1.10;;;1.00;;
10122;SDS011;5101;49.038;8.710;2022-08-01T10:14:22;2.25;;;0.90;;
10122;SDS011;5101;49.038;8.710;2022-08-01T10:16:50;1.10;;;1.00;;
10122;SDS011;5101;49.038;8.710;2022-08-01T10:19:18;1.75;;;0.90;;
10122;SDS011;5101;49.038;8.710;2022-08-01T10:21:46;2.63;;;0.70;;
10122;SDS011;5101;49.038;8.710;2022-08-01T10:24:14;2.67;;;1.00;;
10122;SDS011;5101;49.038;8.710;2022-08-01T10:26:40;12.45;;;1.33;;
10122;SDS011;5101;49.038;8.710;2022-08-01T10:29:08;1.67;;;1.00;;
10122;SDS011;5101;49.038;8.710;2022-08-01T10:31:34;0.80;;;0.80;;
10122;SDS011;5101;49.038;8.710;2022-08-01T10:34:01;2.30;;;0.90;;
10122;SDS011;5101;49.038;8.710;2022-08-01T10:36:27;2.85;;;1.00;;
10122;SDS011;5101;49.038;8.710;2022-08-01T10:38:53;1.08;;;0.80;;
10122;SDS011;5101;49.038;8.710;2022-08-01T10:41:20;4.32;;;0.90;;
10122;SDS011;5101;49.038;8.710;2022-08-01T10:43:46;1.50;;;1.15;;
10122;SDS011;5101;49.038;8.710;2022-08-01T10:46:12;2.60;;;0.95;;
10122;SDS011;5101;49.038;8.710;2022-08-01T10:48:49;1.52;;;0.80;;
10122;SDS011;5101;49.038;8.710;2022-08-01T10:51:17;1.67;;;0.88;;
10122;SDS011;5101;49.038;8.710;2022-08-01T10:53:50;1.40;;;1.02;;
10122;SDS011;5101;49.038;8.710;2022-08-01T10:56:17;2.47;;;1.10;;
10122;SDS011;5101;49.038;8.710;2022-08-01T10:58:44;0.95;;;0.70;;
10122;SDS011;5101;49.038;8.710;2022-08-01T11:01:12;1.75;;;0.75;;
10122;SDS011;5101;49.038;8.710;2022-08-01T11:03:42;1.50;;;0.90;;
10122;SDS011;5101;49.038;8.710;2022-08-01T11:06:16;0.82;;;0.60;;
10122;SDS011;5101;49.038;8.710;2022-08-01T11:08:50;2.45;;;1.10;;
10122;SDS011;5101;49.038;8.710;2022-08-01T11:11:17;3.58;;;0.93;;
10122;SDS011;5101;49.038;8.710;2022-08-01T11:14:02;3.63;;;0.70;;
10122;SDS011;5101;49.038;8.710;2022-08-01T11:16:33;4.30;;;1.00;;
10122;SDS011;5101;49.038;8.710;2022-08-01T11:19:00;4.65;;;0.90;;
10122;SDS011;5101;49.038;8.710;2022-08-01T11:24:21;0.90;;;0.90;;
10122;SDS011;5101;49.038;8.710;2022-08-01T11:27:20;1.48;;;0.70;;
10122;SDS011;5101;49.038;8.710;2022-08-01T11:32:50;2.70;;;1.13;;
10122;SDS011;5101;49.038;8.710;2022-08-01T11:35:18;0.88;;;0.60;;
10122;SDS011;5101;49.038;8.710;2022-08-01T11:37:48;0.70;;;0.70;;
10122;SDS011;5101;49.038;8.710;2022-08-01T11:40:26;3.90;;;0.90;;
10122;SDS011;5101;49.038;8.710;2022-08-01T11:45:53;0.65;;;0.65;;
10122;SDS011;5101;49.038;8.710;2022-08-01T11:48:29;1.27;;;0.70;;
10122;SDS011;5101;49.038;8.710;2022-08-01T11:50:57;2.67;;;0.80;;
10122;SDS011;5101;49.038;8.710;2022-08-01T11:53:23;1.83;;;0.82;;
10122;SDS011;5101;49.038;8.710;2022-08-01T11:55:49;1.75;;;0.90;;
10122;SDS011;5101;49.038;8.710;2022-08-01T11:58:20;1.00;;;0.90;;
10122;SDS011;5101;49.038;8.710;2022-08-01T12:00:53;0.77;;;0.73;;
10122;SDS011;5101;49.038;8.710;2022-08-01T12:03:27;2.13;;;0.60;;
10122;SDS011;5101;49.038;8.710;2022-08-01T12:05:54;2.20;;;0.73;;
10122;SDS011;5101;49.038;8.710;2022-08-01T12:08:27;1.80;;;0.93;;
10122;SDS011;5101;49.038;8.710;2022-08-01T12:10:54;1.38;;;1.02;;
10122;SDS011;5101;49.038;8.710;2022-08-01T12:13:20;0.98;;;0.80;;
10122;SDS011;5101;49.038;8.710;2022-08-01T12:15:46;1.42;;;1.00;;
10122;SDS011;5101;49.038;8.710;2022-08-01T12:18:12;0.93;;;0.68;;
10122;SDS011;5101;49.038;8.710;2022-08-01T12:20:43;0.77;;;0.70;;
10122;SDS011;5101;49.038;8.710;2022-08-01T12:23:11;0.80;;;0.80;;
10122;SDS011;5101;49.038;8.710;2022-08-01T12:25:38;1.20;;;0.88;;
10122;SDS011;5101;49.038;8.710;2022-08-01T12:28:05;1.55;;;0.90;;
10122;SDS011;5101;49.038;8.710;2022-08-01T12:30:33;0.80;;;0.80;;
10122;SDS011;5101;49.038;8.710;2022-08-01T12:33:00;1.10;;;0.80;;
10122;SDS011;5101;49.038;8.710;2022-08-01T12:35:26;0.80;;;0.80;;
10122;SDS011;5101;49.038;8.710;2022-08-01T12:37:54;2.05;;;1.08;;
10122;SDS011;5101;49.038;8.710;2022-08-01T12:40:25;0.82;;;0.82;;
10122;SDS011;5101;49.038;8.710;2022-08-01T12:42:52;1.33;;;0.90;;
10122;SDS011;5101;49.038;8.710;2022-08-01T12:45:21;2.10;;;1.13;;
10122;SDS011;5101;49.038;8.710;2022-08-01T12:47:51;1.00;;;1.00;;
10122;SDS011;5101;49.038;8.710;2022-08-01T12:50:18;3.13;;;1.08;;
10122;SDS011;5101;49.038;8.710;2022-08-01T12:52:46;2.35;;;0.90;;
10122;SDS011;5101;49.038;8.710;2022-08-01T12:55:16;3.13;;;0.80;;
10122;SDS011;5101;49.038;8.710;2022-08-01T12:57:47;1.08;;;0.98;;
10122;SDS011;5101;49.038;8.710;2022-08-01T13:00:20;1.00;;;0.88;;
10122;SDS011;5101;49.038;8.710;2022-08-01T13:02:47;3.88;;;0.90;;
10122;SDS011;5101;49.038;8.710;2022-08-01T13:05:14;0.93;;;0.80;;
10122;SDS011;5101;49.038;8.710;2022-08-01T13:07:41;2.55;;;0.90;;
10122;SDS011;5101;49.038;8.710;2022-08-01T13:10:09;1.85;;;0.93;;
10122;SDS011;5101;49.038;8.710;2022-08-01T13:12:36;0.80;;;0.80;;
10122;SDS011;5101;49.038;8.710;2022-08-01T13:15:15;1.45;;;1.00;;
10122;SDS011;5101;49.038;8.710;2022-08-01T13:17:42;0.70;;;0.70;;
10122;SDS011;5101;49.038;8.710;2022-08-01T13:20:09;0.90;;;0.90;;
10122;SDS011;5101;49.038;8.710;2022-08-01T13:22:35;2.75;;;0.95;;
10122;SDS011;5101;49.038;8.710;2022-08-01T13:27:40;1.63;;;0.88;;
10122;SDS011;5101;49.038;8.710;2022-08-01T13:30:13;1.65;;;0.80;;
10122;SDS011;5101;49.038;8.710;2022-08-01T13:32:40;1.30;;;0.80;;
10122;SDS011;5101;49.038;8.710;2022-08-01T13:35:08;2.35;;;0.80;;
10122;SDS011;5101;49.038;8.710;2022-08-01T13:37:37;0.80;;;0.70;;
10122;SDS011;5101;49.038;8.710;2022-08-01T13:40:04;4.57;;;0.90;;
10122;SDS011;5101;49.038;8.710;2022-08-01T13:42:30;3.55;;;0.80;;
10122;SDS011;5101;49.038;8.710;2022-08-01T13:44:56;0.85;;;0.70;;
10122;SDS011;5101;49.038;8.710;2022-08-01T13:47:22;1.63;;;0.60;;
10122;SDS011;5101;49.038;8.710;2022-08-01T13:49:48;3.75;;;0.70;;
10122;SDS011;5101;49.038;8.710;2022-08-01T13:52:13;1.27;;;0.70;;
10122;SDS011;5101;49.038;8.710;2022-08-01T13:54:39;0.95;;;0.70;;
10122;SDS011;5101;49.038;8.710;2022-08-01T13:57:04;1.58;;;0.77;;
10122;SDS011;5101;49.038;8.710;2022-08-01T13:59:30;1.65;;;0.75;;
10122;SDS011;5101;49.038;8.710;2022-08-01T14:01:55;0.70;;;0.70;;
10122;SDS011;5101;49.038;8.710;2022-08-01T14:04:21;1.73;;;0.73;;
10122;SDS011;5101;49.038;8.710;2022-08-01T14:06:47;0.85;;;0.80;;
10122;SDS011;5101;49.038;8.710;2022-08-01T14:09:12;1.27;;;0.80;;
10122;SDS011;5101;49.038;8.710;2022-08-01T14:11:41;1.98;;;0.73;;
10122;SDS011;5101;49.038;8.710;2022-08-01T14:14:07;0.52;;;0.52;;
10122;SDS011;5101;49.038;8.710;2022-08-01T14:16:32;1.40;;;0.70;;
10122;SDS011;5101;49.038;8.710;2022-08-01T14:18:58;0.85;;;0.73;;
10122;SDS011;5101;49.038;8.710;2022-08-01T14:21:23;0.65;;;0.47;;
10122;SDS011;5101;49.038;8.710;2022-08-01T14:23:49;1.38;;;0.70;;
10122;SDS011;5101;49.038;8.710;2022-08-01T14:26:14;0.88;;;0.70;;
10122;SDS011;5101;49.038;8.710;2022-08-01T14:28:40;5.47;;;0.98;;
10122;SDS011;5101;49.038;8.710;2022-08-01T14:31:05;0.73;;;0.70;;
10122;SDS011;5101;49.038;8.710;2022-08-01T14:33:32;1.65;;;0.60;;
10122;SDS011;5101;49.038;8.710;2022-08-01T14:35:58;0.60;;;0.60;;
10122;SDS011;5101;49.038;8.710;2022-08-01T14:38:23;2.05;;;0.50;;
10122;SDS011;5101;49.038;8.710;2022-08-01T14:40:49;0.63;;;0.50;;
10122;SDS011;5101;49.038;8.710;2022-08-01T14:43:16;2.60;;;0.60;;
10122;SDS011;5101;49.038;8.710;2022-08-01T14:45:42;0.50;;;0.50;;
10122;SDS011;5101;49.038;8.710;2022-08-01T14:48:08;1.48;;;0.70;;
10122;SDS011;5101;49.038;8.710;2022-08-01T14:50:34;0.50;;;0.50;;
10122;SDS011;5101;49.038;8.710;2022-08-01T14:52:59;0.50;;;0.50;;
10122;SDS011;5101;49.038;8.710;2022-08-01T14:55:25;0.60;;;0.60;;
10122;SDS011;5101;49.038;8.710;2022-08-01T14:57:51;0.65;;;0.50;;
10122;SDS011;5101;49.038;8.710;2022-08-01T15:00:17;1.08;;;0.60;;
10122;SDS011;5101;49.038;8.710;2022-08-01T15:02:44;1.60;;;0.52;;
10122;SDS011;5101;49.038;8.710;2022-08-01T15:05:11;0.43;;;0.43;;
10122;SDS011;5101;49.038;8.710;2022-08-01T15:07:36;0.40;;;0.40;;
10122;SDS011;5101;49.038;8.710;2022-08-01T15:10:03;1.65;;;0.50;;
10122;SDS011;5101;49.038;8.710;2022-08-01T15:12:30;0.50;;;0.50;;
10122;SDS011;5101;49.038;8.710;2022-08-01T15:14:56;0.50;;;0.50;;
10122;SDS011;5101;49.038;8.710;2022-08-01T15:17:23;1.00;;;0.50;;
10122;SDS011;5101;49.038;8.710;2022-08-01T15:19:54;1.08;;;0.55;;
10122;SDS011;5101;49.038;8.710;2022-08-01T15:22:20;0.40;;;0.40;;
10122;SDS011;5101;49.038;8.710;2022-08-01T15:24:47;4.25;;;0.45;;
10122;SDS011;5101;49.038;8.710;2022-08-01T15:27:14;1.83;;;0.70;;
10122;SDS011;5101;49.038;8.710;2022-08-01T15:29:39;1.05;;;0.50;;
10122;SDS011;5101;49.038;8.710;2022-08-01T15:32:06;1.30;;;0.60;;
10122;SDS011;5101;49.038;8.710;2022-08-01T15:34:33;0.77;;;0.45;;
10122;SDS011;5101;49.038;8.710;2022-08-01T15:36:59;1.20;;;0.82;;